• Join FlightAware (Why Join?)
  • Login
  • US Flag 
11:05PM EST


 

Airport Tracker/Info


-or-


 

Live Flight TrackerFlight Track Log ✈ N6PZ ✈ 30-May-2014 ✈ 26N - KHTO

Flight Track Log - Related Links

Times and Time Zones

All times are in EDT time to prevent confusion due to time zone crossing. See the N6PZ flight status page for this flight to view local times or setup timezone preferences in your user account.

Time Position Orientation Groundspeed Altitude Reporting Facility
EDT Latitude Longitude Course Direction KTS MPH feet Rate Location/Type
03:14PM 39.3838 -74.3992 57° Northeast  Level FlightAware Approximate
03:15PM 39.2897 -74.5607 54° Northeast  Level FlightAware Approximate
03:16PM 39.3209 -74.5192 49° Northeast  Level Estimated
03:17PM 39.3520 -74.4777 49° Northeast  Level Estimated
03:18PM 39.3831 -74.4361 38° Northeast  Level Estimated
03:18PM 39.3206 -74.4594 53° Northeast 160 184 8,300  Level Washington Center
03:19PM 39.4142 -74.3945 38° Northeast  Level Estimated
03:20PM 39.4452 -74.3529 54° Northeast  Level Estimated
03:21PM 39.4691 -74.3040 58° Northeast  Level FlightAware Approximate
03:21PM 39.3725 -74.3775 51° Northeast 122 140 8,900  Level New York Center
03:22PM 39.4930 -74.2550 58° Northeast  Level FlightAware Approximate
03:22PM 39.3967 -74.3386 51° Northeast 127 146 9,000  Level New York Center
03:23PM 39.5243 -74.2136 53° Northeast  Level Estimated
03:23PM 39.4231 -74.2942 52° Northeast 137 158 9,000  Level New York Center
03:24PM 39.4514 -74.2525 49° Northeast 144 166 9,000  Level New York Center
03:25PM 39.4756 -74.2108 53° Northeast 155 178 9,000 -60 Level New York Center
03:26PM 39.5061 -74.1639 50° Northeast 155 178 8,900 -60 Descending New York Center
03:27PM 39.5344 -74.1219 49° Northeast 155 178 8,900  Level New York Center
03:28PM 39.5608 -74.0775 52° Northeast 155 178 8,900  Level New York Center
03:30PM 39.6175 -73.9886 50° Northeast 150 173 8,900  Level New York Center
03:31PM 39.6456 -73.9467 49° Northeast 150 173 8,900  Level New York Center
03:32PM 39.6719 -73.9019 53° Northeast 150 173 8,900  Level New York Center
03:33PM 39.6981 -73.8628 49° Northeast 150 173 8,900  Level New York Center
03:34PM 39.7283 -73.8183 48° Northeast 150 173 8,900  Level New York Center
03:35PM 39.7567 -73.7708 52° Northeast 150 173 8,900  Level New York Center
03:36PM 39.7850 -73.7261 50° Northeast 150 173 8,900  Level New York Center
03:37PM 39.8111 -73.6814 53° Northeast 150 173 8,900  Level New York Center
03:38PM 39.8372 -73.6364 53° Northeast 150 173 8,900  Level New York Center
03:39PM 39.8653 -73.5944 49° Northeast 150 173 8,900  Level New York Center
03:40PM 39.8933 -73.5494 51° Northeast 150 173 8,900  Level New York Center
03:41PM 39.9236 -73.5100 45° Northeast 150 173 8,900  Level New York Center
03:42PM 39.9556 -73.4733 41° Northeast 150 173 8,900  Level New York Center
03:43PM 39.9858 -73.4339 45° Northeast 159 183 8,900  Level New York Center
03:44PM 40.0328 -73.3808 41° Northeast 158 182 8,900  Level Boston Center
03:45PM 40.0692 -73.3344 44° Northeast 158 182 8,900  Level Boston Center
03:46PM 40.1036 -73.2986 39° Northeast 157 181 9,000  Climbing Boston Center
03:47PM 40.1339 -73.2575 46° Northeast 157 181 8,900 -60 Descending Boston Center
03:48PM 40.1656 -73.2208 41° Northeast 156 180 8,900  Level Boston Center
03:49PM 40.1989 -73.1828 41° Northeast 156 180 8,900  Level Boston Center
03:50PM 40.2311 -73.1456 41° Northeast 156 180 8,900  Level Boston Center
03:51PM 40.2631 -73.1078 42° Northeast 156 180 8,900  Level Boston Center
03:52PM 40.2953 -73.0689 43° Northeast 156 180 8,900  Level Boston Center
03:53PM 40.3336 -73.0233 42° Northeast 156 180 8,900  Level Boston Center
03:54PM 40.3639 -72.9844 44° Northeast 155 178 8,900  Level Boston Center
03:55PM 40.3969 -72.9467 41° Northeast 155 178 8,900  Level Boston Center
03:56PM 40.4300 -72.9075 42° Northeast 157 181 8,900  Level Boston Center
03:57PM 40.4617 -72.8700 42° Northeast 157 181 8,900  Level Boston Center
03:58PM 40.4925 -72.8311 44° Northeast 157 181 8,900  Level Boston Center
03:59PM 40.5250 -72.7936 41° Northeast 156 180 8,900 -240 Level Boston Center
04:00PM 40.5628 -72.7467 43° Northeast 156 180 8,500 -480 Descending Boston Center
04:01PM 40.6000 -72.7081 38° Northeast 165 190 8,000 -540 Descending Boston Center
04:02PM 40.6375 -72.6725 36° Northeast 166 191 7,500 -600 Descending Boston Center
04:03PM 40.6758 -72.6336 38° Northeast 169 194 6,800 -720 Descending Boston Center
04:05PM 40.7147 -72.5942 38° Northeast 173 199 6,100 -780 Descending Boston Center
04:06PM 40.7539 -72.5547 37° Northeast 175 201 5,300 -1,440 Descending Boston Center
04:07PM 40.7864 -72.4842 59° Northeast 206 237 3,200 -1,620 Descending Boston Center
04:08PM 40.8050 -72.4178 70° East 205 236 2,000 -660 Descending Boston Center
04:09PM 40.8394 -72.3747 43° Northeast 185 213 1,900  Descending Boston Center
04:10PM 40.8753 -72.3422 34° Northeast 169 194 2,000  Climbing Boston Center
04:11PM 40.9158 -72.3200 22° Northeast 161 185 2,000 -300 Level Boston Center
04:12PM 40.9461 -72.2811 44° Northeast 156 180 1,500 -540 Descending Boston Center
04:13PM 40.9494 -72.2336 85° East 121 139 900 -600 Descending Boston Center
04:14PM 40.9614 -72.2494 315° West 120 138 300 -600 Descending Boston Center
04:17PM 40.9594 -72.2517 270° West  Level Estimated